sensor_id;sensor_type;location;lat;lon;timestamp;P1;durP1;ratioP1;P2;durP2;ratioP2
58083;SDS011;43882;51.550;11.858;2022-09-30T13:00:02;9.95;;;2.67;;
58083;SDS011;43882;51.550;11.858;2022-09-30T13:02:36;10.60;;;2.75;;
58083;SDS011;43882;51.550;11.858;2022-09-30T13:06:06;6.93;;;2.42;;
58083;SDS011;43882;51.550;11.858;2022-09-30T13:15:44;8.57;;;2.60;;
58083;SDS011;43882;51.550;11.858;2022-09-30T13:23:37;9.38;;;2.75;;
58083;SDS011;43882;51.550;11.858;2022-09-30T13:31:24;9.70;;;2.58;;
58083;SDS011;43882;51.550;11.858;2022-09-30T13:36:27;12.50;;;3.10;;
58083;SDS011;43882;51.550;11.858;2022-09-30T13:41:33;7.90;;;2.25;;
58083;SDS011;43882;51.550;11.858;2022-09-30T13:44:18;9.05;;;2.55;;
58083;SDS011;43882;51.550;11.858;2022-09-30T13:46:50;7.20;;;2.60;;
58083;SDS011;43882;51.550;11.858;2022-09-30T13:49:20;8.18;;;2.30;;
58083;SDS011;43882;51.550;11.858;2022-09-30T13:51:47;7.03;;;2.60;;
58083;SDS011;43882;51.550;11.858;2022-09-30T13:56:49;6.78;;;2.25;;
58083;SDS011;43882;51.550;11.858;2022-09-30T13:59:21;8.13;;;2.22;;
58083;SDS011;43882;51.550;11.858;2022-09-30T14:02:00;9.18;;;2.40;;
58083;SDS011;43882;51.550;11.858;2022-09-30T14:12:37;8.80;;;2.22;;
58083;SDS011;43882;51.550;11.858;2022-09-30T14:18:00;7.22;;;2.25;;
58083;SDS011;43882;51.550;11.858;2022-09-30T14:23:01;6.60;;;2.50;;
58083;SDS011;43882;51.550;11.858;2022-09-30T14:25:29;7.13;;;2.17;;
58083;SDS011;43882;51.550;11.858;2022-09-30T14:28:11;6.97;;;2.17;;
58083;SDS011;43882;51.550;11.858;2022-09-30T14:30:41;17.67;;;6.75;;
58083;SDS011;43882;51.550;11.858;2022-09-30T14:33:27;10.48;;;3.63;;
58083;SDS011;43882;51.550;11.858;2022-09-30T14:35:55;12.98;;;4.00;;
58083;SDS011;43882;51.550;11.858;2022-09-30T14:38:25;10.25;;;3.40;;
58083;SDS011;43882;51.550;11.858;2022-09-30T14:40:54;9.93;;;2.90;;
58083;SDS011;43882;51.550;11.858;2022-09-30T14:43:25;9.27;;;3.15;;
58083;SDS011;43882;51.550;11.858;2022-09-30T14:45:56;9.40;;;2.80;;
58083;SDS011;43882;51.550;11.858;2022-09-30T14:48:26;10.02;;;2.60;;
58083;SDS011;43882;51.550;11.858;2022-09-30T14:50:58;8.80;;;2.58;;
58083;SDS011;43882;51.550;11.858;2022-09-30T14:53:27;7.68;;;2.50;;
58083;SDS011;43882;51.550;11.858;2022-09-30T14:55:53;8.93;;;2.60;;
58083;SDS011;43882;51.550;11.858;2022-09-30T14:58:24;7.55;;;2.47;;
58083;SDS011;43882;51.550;11.858;2022-09-30T15:03:18;19.30;;;11.15;;
58083;SDS011;43882;51.550;11.858;2022-09-30T15:05:44;15.77;;;6.30;;
58083;SDS011;43882;51.550;11.858;2022-09-30T15:08:10;12.27;;;3.83;;
58083;SDS011;43882;51.550;11.858;2022-09-30T15:10:37;10.27;;;3.28;;
58083;SDS011;43882;51.550;11.858;2022-09-30T15:13:11;10.70;;;3.00;;
58083;SDS011;43882;51.550;11.858;2022-09-30T15:15:37;9.55;;;2.90;;
58083;SDS011;43882;51.550;11.858;2022-09-30T15:20:50;11.10;;;3.10;;
58083;SDS011;43882;51.550;11.858;2022-09-30T15:23:18;9.02;;;2.75;;
58083;SDS011;43882;51.550;11.858;2022-09-30T15:25:45;10.73;;;2.80;;
58083;SDS011;43882;51.550;11.858;2022-09-30T15:28:11;10.10;;;2.90;;
58083;SDS011;43882;51.550;11.858;2022-09-30T15:30:38;8.30;;;2.55;;
58083;SDS011;43882;51.550;11.858;2022-09-30T15:33:11;6.03;;;2.55;;
58083;SDS011;43882;51.550;11.858;2022-09-30T15:35:38;10.32;;;2.80;;
58083;SDS011;43882;51.550;11.858;2022-09-30T15:38:21;7.35;;;2.70;;
58083;SDS011;43882;51.550;11.858;2022-09-30T15:40:54;8.52;;;2.88;;
58083;SDS011;43882;51.550;11.858;2022-09-30T15:46:18;9.68;;;2.80;;
58083;SDS011;43882;51.550;11.858;2022-09-30T15:48:44;10.73;;;2.83;;
58083;SDS011;43882;51.550;11.858;2022-09-30T15:51:27;14.32;;;3.92;;
58083;SDS011;43882;51.550;11.858;2022-09-30T15:53:57;11.60;;;3.95;;
58083;SDS011;43882;51.550;11.858;2022-09-30T15:56:30;16.15;;;6.28;;
58083;SDS011;43882;51.550;11.858;2022-09-30T16:01:59;9.60;;;2.90;;
58083;SDS011;43882;51.550;11.858;2022-09-30T16:06:50;10.13;;;3.00;;
58083;SDS011;43882;51.550;11.858;2022-09-30T16:09:18;9.32;;;2.88;;
58083;SDS011;43882;51.550;11.858;2022-09-30T16:12:27;9.27;;;2.70;;
58083;SDS011;43882;51.550;11.858;2022-09-30T16:17:06;12.50;;;3.00;;
58083;SDS011;43882;51.550;11.858;2022-09-30T16:19:38;8.38;;;2.97;;
58083;SDS011;43882;51.550;11.858;2022-09-30T16:22:04;8.80;;;2.75;;
58083;SDS011;43882;51.550;11.858;2022-09-30T16:27:18;14.20;;;3.40;;
58083;SDS011;43882;51.550;11.858;2022-09-30T16:29:45;9.57;;;2.80;;
58083;SDS011;43882;51.550;11.858;2022-09-30T16:32:11;8.13;;;2.55;;
58083;SDS011;43882;51.550;11.858;2022-09-30T16:34:38;9.43;;;2.80;;
58083;SDS011;43882;51.550;11.858;2022-09-30T16:37:14;11.68;;;2.85;;
58083;SDS011;43882;51.550;11.858;2022-09-30T16:39:42;9.73;;;2.80;;
58083;SDS011;43882;51.550;11.858;2022-09-30T16:42:11;10.80;;;2.80;;
58083;SDS011;43882;51.550;11.858;2022-09-30T16:44:38;10.40;;;3.17;;
58083;SDS011;43882;51.550;11.858;2022-09-30T16:47:04;9.68;;;2.70;;
58083;SDS011;43882;51.550;11.858;2022-09-30T16:49:30;10.90;;;3.00;;
58083;SDS011;43882;51.550;11.858;2022-09-30T16:51:56;11.27;;;2.90;;
58083;SDS011;43882;51.550;11.858;2022-09-30T16:54:22;12.73;;;3.20;;
58083;SDS011;43882;51.550;11.858;2022-09-30T16:56:48;12.25;;;3.80;;
58083;SDS011;43882;51.550;11.858;2022-09-30T16:59:14;11.43;;;3.50;;
58083;SDS011;43882;51.550;11.858;2022-09-30T17:01:41;9.25;;;3.10;;
58083;SDS011;43882;51.550;11.858;2022-09-30T17:04:07;9.65;;;3.10;;
58083;SDS011;43882;51.550;11.858;2022-09-30T17:06:33;9.80;;;2.83;;
58083;SDS011;43882;51.550;11.858;2022-09-30T17:09:00;10.10;;;3.00;;
58083;SDS011;43882;51.550;11.858;2022-09-30T17:11:29;13.05;;;3.65;;
58083;SDS011;43882;51.550;11.858;2022-09-30T17:13:56;13.10;;;3.95;;
58083;SDS011;43882;51.550;11.858;2022-09-30T17:16:22;13.20;;;3.90;;
58083;SDS011;43882;51.550;11.858;2022-09-30T17:18:49;14.70;;;4.25;;
58083;SDS011;43882;51.550;11.858;2022-09-30T17:21:18;14.15;;;4.28;;
58083;SDS011;43882;51.550;11.858;2022-09-30T17:23:44;14.73;;;4.30;;
58083;SDS011;43882;51.550;11.858;2022-09-30T17:26:10;13.73;;;4.20;;
58083;SDS011;43882;51.550;11.858;2022-09-30T17:28:36;12.93;;;4.00;;
58083;SDS011;43882;51.550;11.858;2022-09-30T17:31:02;13.50;;;3.65;;
58083;SDS011;43882;51.550;11.858;2022-09-30T17:33:33;16.13;;;4.30;;
58083;SDS011;43882;51.550;11.858;2022-09-30T17:36:00;13.88;;;4.03;;
58083;SDS011;43882;51.550;11.858;2022-09-30T17:38:27;14.43;;;4.47;;
58083;SDS011;43882;51.550;11.858;2022-09-30T17:40:53;15.88;;;5.05;;
58083;SDS011;43882;51.550;11.858;2022-09-30T17:43:38;14.95;;;4.85;;
58083;SDS011;43882;51.550;11.858;2022-09-30T17:46:04;15.80;;;4.50;;
58083;SDS011;43882;51.550;11.858;2022-09-30T17:48:30;15.70;;;4.50;;
58083;SDS011;43882;51.550;11.858;2022-09-30T17:50:56;15.35;;;4.50;;
58083;SDS011;43882;51.550;11.858;2022-09-30T17:53:24;14.80;;;5.65;;
58083;SDS011;43882;51.550;11.858;2022-09-30T17:58:46;16.67;;;5.00;;
58083;SDS011;43882;51.550;11.858;2022-09-30T18:01:16;15.43;;;5.20;;
58083;SDS011;43882;51.550;11.858;2022-09-30T18:03:43;16.05;;;5.28;;
58083;SDS011;43882;51.550;11.858;2022-09-30T18:06:09;14.70;;;5.18;;
58083;SDS011;43882;51.550;11.858;2022-09-30T18:08:35;17.45;;;6.63;;
58083;SDS011;43882;51.550;11.858;2022-09-30T18:11:02;19.65;;;8.63;;
58083;SDS011;43882;51.550;11.858;2022-09-30T18:13:28;17.65;;;8.43;;
58083;SDS011;43882;51.550;11.858;2022-09-30T18:15:54;21.85;;;10.48;;
58083;SDS011;43882;51.550;11.858;2022-09-30T18:18:25;16.23;;;6.95;;
58083;SDS011;43882;51.550;11.858;2022-09-30T18:20:51;16.67;;;6.47;;
58083;SDS011;43882;51.550;11.858;2022-09-30T18:23:17;16.58;;;6.35;;
58083;SDS011;43882;51.550;11.858;2022-09-30T18:25:44;16.83;;;5.93;;
58083;SDS011;43882;51.550;11.858;2022-09-30T18:28:11;16.15;;;6.05;;
58083;SDS011;43882;51.550;11.858;2022-09-30T18:30:38;16.10;;;6.00;;
58083;SDS011;43882;51.550;11.858;2022-09-30T18:33:05;16.88;;;6.30;;
58083;SDS011;43882;51.550;11.858;2022-09-30T18:35:34;15.93;;;5.90;;
58083;SDS011;43882;51.550;11.858;2022-09-30T18:38:01;16.40;;;6.13;;
58083;SDS011;43882;51.550;11.858;2022-09-30T18:40:27;17.80;;;6.63;;
58083;SDS011;43882;51.550;11.858;2022-09-30T18:42:54;16.67;;;6.07;;
58083;SDS011;43882;51.550;11.858;2022-09-30T18:45:22;17.95;;;6.95;;
58083;SDS011;43882;51.550;11.858;2022-09-30T18:47:52;17.73;;;7.10;;
58083;SDS011;43882;51.550;11.858;2022-09-30T18:50:18;17.40;;;6.60;;
58083;SDS011;43882;51.550;11.858;2022-09-30T18:52:47;18.33;;;7.00;;
58083;SDS011;43882;51.550;11.858;2022-09-30T18:55:13;16.77;;;6.55;;
58083;SDS011;43882;51.550;11.858;2022-09-30T18:57:39;18.05;;;6.60;;
58083;SDS011;43882;51.550;11.858;2022-09-30T19:00:05;16.85;;;7.57;;
58083;SDS011;43882;51.550;11.858;2022-09-30T19:02:34;16.60;;;6.50;;
58083;SDS011;43882;51.550;11.858;2022-09-30T19:05:00;18.10;;;6.75;;
58083;SDS011;43882;51.550;11.858;2022-09-30T19:07:26;17.13;;;6.40;;
58083;SDS011;43882;51.550;11.858;2022-09-30T19:09:52;16.40;;;6.60;;
58083;SDS011;43882;51.550;11.858;2022-09-30T19:12:18;20.08;;;6.70;;
58083;SDS011;43882;51.550;11.858;2022-09-30T19:14:44;20.33;;;9.07;;
58083;SDS011;43882;51.550;11.858;2022-09-30T19:17:12;21.85;;;9.98;;
58083;SDS011;43882;51.550;11.858;2022-09-30T19:19:38;21.38;;;10.20;;
58083;SDS011;43882;51.550;11.858;2022-09-30T19:22:11;26.33;;;14.35;;
58083;SDS011;43882;51.550;11.858;2022-09-30T19:24:37;22.73;;;12.15;;
58083;SDS011;43882;51.550;11.858;2022-09-30T19:27:04;21.05;;;10.70;;
58083;SDS011;43882;51.550;11.858;2022-09-30T19:29:30;20.35;;;9.27;;
58083;SDS011;43882;51.550;11.858;2022-09-30T19:31:57;19.02;;;8.35;;
58083;SDS011;43882;51.550;11.858;2022-09-30T19:34:23;19.25;;;8.00;;
58083;SDS011;43882;51.550;11.858;2022-09-30T19:36:49;19.35;;;7.78;;
58083;SDS011;43882;51.550;11.858;2022-09-30T19:39:16;17.10;;;7.47;;
58083;SDS011;43882;51.550;11.858;2022-09-30T19:41:42;16.90;;;6.90;;
58083;SDS011;43882;51.550;11.858;2022-09-30T19:44:10;18.83;;;7.30;;
58083;SDS011;43882;51.550;11.858;2022-09-30T19:46:36;17.23;;;7.72;;
58083;SDS011;43882;51.550;11.858;2022-09-30T19:49:02;18.17;;;7.13;;
58083;SDS011;43882;51.550;11.858;2022-09-30T19:51:28;17.27;;;7.38;;
58083;SDS011;43882;51.550;11.858;2022-09-30T19:53:56;18.25;;;7.78;;
58083;SDS011;43882;51.550;11.858;2022-09-30T19:56:22;20.13;;;8.45;;
58083;SDS011;43882;51.550;11.858;2022-09-30T19:58:49;21.52;;;9.73;;
58083;SDS011;43882;51.550;11.858;2022-09-30T20:01:16;31.50;;;14.10;;
58083;SDS011;43882;51.550;11.858;2022-09-30T20:03:44;38.70;;;18.60;;
58083;SDS011;43882;51.550;11.858;2022-09-30T20:06:11;30.33;;;14.25;;
58083;SDS011;43882;51.550;11.858;2022-09-30T20:08:38;31.52;;;15.07;;
58083;SDS011;43882;51.550;11.858;2022-09-30T20:11:09;23.67;;;11.57;;
58083;SDS011;43882;51.550;11.858;2022-09-30T20:13:36;31.58;;;14.70;;
58083;SDS011;43882;51.550;11.858;2022-09-30T20:16:06;31.58;;;15.50;;
58083;SDS011;43882;51.550;11.858;2022-09-30T20:18:32;32.42;;;15.77;;
58083;SDS011;43882;51.550;11.858;2022-09-30T20:20:58;30.40;;;14.95;;
58083;SDS011;43882;51.550;11.858;2022-09-30T20:23:25;24.92;;;11.85;;
58083;SDS011;43882;51.550;11.858;2022-09-30T20:25:52;24.65;;;11.63;;
58083;SDS011;43882;51.550;11.858;2022-09-30T20:28:18;22.02;;;10.48;;
58083;SDS011;43882;51.550;11.858;2022-09-30T20:30:44;24.77;;;12.43;;
58083;SDS011;43882;51.550;11.858;2022-09-30T20:33:11;24.65;;;12.25;;
58083;SDS011;43882;51.550;11.858;2022-09-30T20:35:37;23.67;;;11.85;;
58083;SDS011;43882;51.550;11.858;2022-09-30T20:38:03;23.08;;;10.90;;
58083;SDS011;43882;51.550;11.858;2022-09-30T20:40:31;22.10;;;11.27;;
58083;SDS011;43882;51.550;11.858;2022-09-30T20:42:57;24.98;;;12.50;;
58083;SDS011;43882;51.550;11.858;2022-09-30T20:45:24;24.17;;;11.48;;
58083;SDS011;43882;51.550;11.858;2022-09-30T20:47:50;26.30;;;11.88;;
58083;SDS011;43882;51.550;11.858;2022-09-30T20:50:17;26.25;;;11.70;;
58083;SDS011;43882;51.550;11.858;2022-09-30T20:52:59;32.05;;;12.85;;
58083;SDS011;43882;51.550;11.858;2022-09-30T20:55:24;21.20;;;9.40;;
58083;SDS011;43882;51.550;11.858;2022-09-30T20:57:52;20.10;;;8.73;;
58083;SDS011;43882;51.550;11.858;2022-09-30T21:00:18;20.95;;;9.15;;
58083;SDS011;43882;51.550;11.858;2022-09-30T21:02:44;21.50;;;9.38;;
58083;SDS011;43882;51.550;11.858;2022-09-30T21:05:13;20.30;;;9.07;;
58083;SDS011;43882;51.550;11.858;2022-09-30T21:07:39;19.80;;;8.98;;
58083;SDS011;43882;51.550;11.858;2022-09-30T21:10:05;20.95;;;8.63;;
58083;SDS011;43882;51.550;11.858;2022-09-30T21:12:31;19.73;;;8.90;;
58083;SDS011;43882;51.550;11.858;2022-09-30T21:14:57;18.95;;;8.73;;
58083;SDS011;43882;51.550;11.858;2022-09-30T21:17:25;19.45;;;9.10;;
58083;SDS011;43882;51.550;11.858;2022-09-30T21:19:52;20.10;;;9.00;;
58083;SDS011;43882;51.550;11.858;2022-09-30T21:22:18;18.98;;;8.85;;
58083;SDS011;43882;51.550;11.858;2022-09-30T21:24:44;18.58;;;9.00;;
58083;SDS011;43882;51.550;11.858;2022-09-30T21:27:11;19.80;;;9.02;;
58083;SDS011;43882;51.550;11.858;2022-09-30T21:29:37;20.25;;;8.60;;
58083;SDS011;43882;51.550;11.858;2022-09-30T21:32:03;19.80;;;9.00;;
58083;SDS011;43882;51.550;11.858;2022-09-30T21:34:29;20.27;;;8.45;;
58083;SDS011;43882;51.550;11.858;2022-09-30T21:36:56;18.95;;;8.23;;
58083;SDS011;43882;51.550;11.858;2022-09-30T21:39:22;20.05;;;8.88;;
58083;SDS011;43882;51.550;11.858;2022-09-30T21:41:48;18.33;;;7.50;;
58083;SDS011;43882;51.550;11.858;2022-09-30T21:44:14;19.20;;;8.07;;
58083;SDS011;43882;51.550;11.858;2022-09-30T21:46:41;19.98;;;8.32;;
58083;SDS011;43882;51.550;11.858;2022-09-30T21:49:14;19.67;;;8.02;;
58083;SDS011;43882;51.550;11.858;2022-09-30T21:51:40;18.98;;;7.70;;
58083;SDS011;43882;51.550;11.858;2022-09-30T21:54:06;20.63;;;8.20;;
58083;SDS011;43882;51.550;11.858;2022-09-30T21:56:34;19.50;;;7.88;;
58083;SDS011;43882;51.550;11.858;2022-09-30T21:59:00;20.23;;;8.40;;
58083;SDS011;43882;51.550;11.858;2022-09-30T22:01:27;19.23;;;8.15;;
58083;SDS011;43882;51.550;11.858;2022-09-30T22:03:54;20.73;;;8.93;;
58083;SDS011;43882;51.550;11.858;2022-09-30T22:06:20;20.38;;;8.60;;
58083;SDS011;43882;51.550;11.858;2022-09-30T22:08:46;19.65;;;8.52;;
58083;SDS011;43882;51.550;11.858;2022-09-30T22:11:16;19.77;;;8.25;;
58083;SDS011;43882;51.550;11.858;2022-09-30T22:13:42;20.95;;;8.30;;
58083;SDS011;43882;51.550;11.858;2022-09-30T22:16:09;20.52;;;8.32;;
58083;SDS011;43882;51.550;11.858;2022-09-30T22:18:35;18.83;;;8.18;;
58083;SDS011;43882;51.550;11.858;2022-09-30T22:21:11;18.63;;;7.80;;
58083;SDS011;43882;51.550;11.858;2022-09-30T22:23:37;18.83;;;7.38;;
58083;SDS011;43882;51.550;11.858;2022-09-30T22:26:07;18.08;;;7.82;;
58083;SDS011;43882;51.550;11.858;2022-09-30T22:28:35;20.20;;;8.18;;
58083;SDS011;43882;51.550;11.858;2022-09-30T22:33:43;19.08;;;8.00;;
58083;SDS011;43882;51.550;11.858;2022-09-30T22:36:27;19.20;;;7.82;;
58083;SDS011;43882;51.550;11.858;2022-09-30T22:39:12;17.92;;;7.53;;
58083;SDS011;43882;51.550;11.858;2022-09-30T22:41:38;18.88;;;7.78;;
58083;SDS011;43882;51.550;11.858;2022-09-30T22:44:04;19.15;;;7.53;;
58083;SDS011;43882;51.550;11.858;2022-09-30T22:46:34;17.80;;;6.88;;
58083;SDS011;43882;51.550;11.858;2022-09-30T22:49:00;17.55;;;6.72;;
58083;SDS011;43882;51.550;11.858;2022-09-30T22:51:26;17.50;;;7.00;;
58083;SDS011;43882;51.550;11.858;2022-09-30T22:53:53;19.45;;;8.30;;
58083;SDS011;43882;51.550;11.858;2022-09-30T22:56:20;18.55;;;6.97;;
58083;SDS011;43882;51.550;11.858;2022-09-30T22:58:46;18.17;;;7.35;;
58083;SDS011;43882;51.550;11.858;2022-09-30T23:01:12;19.30;;;7.90;;
58083;SDS011;43882;51.550;11.858;2022-09-30T23:03:38;18.65;;;7.53;;
58083;SDS011;43882;51.550;11.858;2022-09-30T23:06:04;17.73;;;7.13;;
58083;SDS011;43882;51.550;11.858;2022-09-30T23:08:32;17.25;;;6.90;;
58083;SDS011;43882;51.550;11.858;2022-09-30T23:11:05;18.52;;;8.00;;
58083;SDS011;43882;51.550;11.858;2022-09-30T23:13:31;21.08;;;8.00;;
58083;SDS011;43882;51.550;11.858;2022-09-30T23:15:59;18.20;;;7.40;;
58083;SDS011;43882;51.550;11.858;2022-09-30T23:18:25;18.15;;;7.57;;
58083;SDS011;43882;51.550;11.858;2022-09-30T23:21:02;18.23;;;7.97;;
58083;SDS011;43882;51.550;11.858;2022-09-30T23:23:29;19.13;;;7.22;;
58083;SDS011;43882;51.550;11.858;2022-09-30T23:26:41;19.33;;;8.35;;
58083;SDS011;43882;51.550;11.858;2022-09-30T23:28:42;21.08;;;9.18;;
58083;SDS011;43882;51.550;11.858;2022-09-30T23:31:09;20.45;;;8.80;;
58083;SDS011;43882;51.550;11.858;2022-09-30T23:33:36;19.55;;;8.77;;
58083;SDS011;43882;51.550;11.858;2022-09-30T23:36:03;20.05;;;8.38;;
58083;SDS011;43882;51.550;11.858;2022-09-30T23:38:29;20.27;;;8.63;;
58083;SDS011;43882;51.550;11.858;2022-09-30T23:40:55;21.00;;;8.77;;
58083;SDS011;43882;51.550;11.858;2022-09-30T23:43:25;19.70;;;8.45;;
58083;SDS011;43882;51.550;11.858;2022-09-30T23:45:51;21.60;;;8.68;;
58083;SDS011;43882;51.550;11.858;2022-09-30T23:48:17;21.02;;;8.90;;
58083;SDS011;43882;51.550;11.858;2022-09-30T23:50:43;20.20;;;8.68;;
58083;SDS011;43882;51.550;11.858;2022-09-30T23:53:09;20.48;;;8.40;;
58083;SDS011;43882;51.550;11.858;2022-09-30T23:55:35;20.40;;;8.27;;
58083;SDS011;43882;51.550;11.858;2022-09-30T23:58:01;20.92;;;8.85;;
